Overview Statistics Trail Chart Weather Telemetry Raw packets
 

This is the latest recevied telemetry packets stored in our database for station/object DB1IAT-12. If no packets are shown the sender has not sent any telemetry packets the latest 10 day(s).

Telemetry packets is used to share measurements like repeteater parameters, battery voltage, radiation readings (or any other measurements).

<< 1 2 3 4 >>
Time Press* Temp.in* Hum* QNH* Temp.out*
1788572716 1005.8 hPa 26.1 C deg 44.6 % 1015.9 hPa 0 C deg
1788569082 1004.7 hPa 26.2 C deg 44.3 % 1014.8 hPa 0 C deg
1788569076 1004.7 hPa 26.2 C deg 44.3 % 1014.8 hPa 0 C deg
1788567266 1004.4 hPa 26.2 C deg 44.2 % 1014.5 hPa 0 C deg
1788567264 1004.4 hPa 26.2 C deg 44.2 % 1014.5 hPa 0 C deg
1788565475 1003.9 hPa 26.2 C deg 44 % 1014 hPa 0 C deg
1788565452 1003.9 hPa 26.2 C deg 44 % 1014 hPa 0 C deg
1788563635 1003.6 hPa 26.2 C deg 43.8 % 1013.7 hPa 0 C deg
1788563630 1003.6 hPa 26.2 C deg 43.8 % 1013.7 hPa 0 C deg
1788561823 1003.4 hPa 26.3 C deg 43.8 % 1013.5 hPa 0 C deg
1788561818 1003.4 hPa 26.3 C deg 43.8 % 1013.5 hPa 0 C deg
1788560015 1003 hPa 26.3 C deg 43.7 % 1013.1 hPa 0 C deg
1788560010 1003 hPa 26.3 C deg 43.7 % 1013.1 hPa 0 C deg
1788558252 1002.6 hPa 26.3 C deg 43.6 % 1012.7 hPa 0 C deg
1788558190 1002.6 hPa 26.3 C deg 43.6 % 1012.7 hPa 0 C deg
1788556376 1002.1 hPa 26.3 C deg 43.5 % 1012.2 hPa 0 C deg
1788556371 1002.1 hPa 26.3 C deg 43.5 % 1012.2 hPa 0 C deg
1788554567 1001.5 hPa 26.3 C deg 43.4 % 1011.6 hPa 0 C deg
1788554555 1001.5 hPa 26.3 C deg 43.4 % 1011.6 hPa 0 C deg
1788552754 1001.4 hPa 26.3 C deg 43.3 % 1011.5 hPa 0 C deg
1788552741 1001.4 hPa 26.3 C deg 43.3 % 1011.5 hPa 0 C deg
1788550929 1001.2 hPa 26.3 C deg 43.1 % 1011.3 hPa 0 C deg
1788550924 1001.2 hPa 26.3 C deg 43.1 % 1011.3 hPa 0 C deg
1788549116 1001 hPa 26.3 C deg 43.1 % 1011.1 hPa 0 C deg
1788547305 1000.7 hPa 26.3 C deg 43.1 % 1010.8 hPa 0 C deg
*Used Equation Coefficients:
Press: 0, 1, 0
Temp.in: 0, 1, 0
Hum: 0, 1, 0
QNH: 0, 1, 0
Temp.out: 0, 1, 0

  • The parameter names for the analog channels will be Value1, Value2, Value3 (up to Value5) if station has not sent a PARAM-packet that specifies the parameter names for each analog channel.
  • Each analog value is a decimal number between 000 and 255 (according to APRS specifications). The receiver use the telemetry equation coefficientsto to restore the original sensor values. If no EQNS-packet with equation coefficients is sent we will show the values as is (this corresponds to the equation coefficients a=0, b=1 and c=0).
    The sent equation coefficients is used in the equation: a * value2 + b * value + c.
  • The units for the analog values will not be shown if station has not sent a UNIT-packet specifying what unit's to use.
  • The parameter names for the digital bits will be Bit1, Bit2, Bit3 (up to Bit8) if station has not sent a PARAM-packet that specifies the parameter names for each digital bit.
  • All bit labels will be named "On" if station has not sent a UNIT-packet that specifies the label of each bit.
  • A bit is considered to be On when the bit is 1 if station has not sent a BITS-packet that specifies another "Bit sense" (a BITS-packet specify the state of the bits that match the BIT labels)